Time;durP1;ratioP1;P1;durP2;ratioP2;P2;SDS_P1;SDS_P2;PMS_P1;PMS_P2;Temp;Humidity;BMP_temperature;BMP_pressure;BME280_temperature;BME280_humidity;BME280_pressure;Samples;Min_cycle;Max_cycle;Signal;HPM_P1;HPM_P2
2022/08/13 00:01:15;;;;;;;3.67;1.83;;;20.60;99.90;;;;;;5018503;28;20511;-70
2022/08/13 00:03:45;;;;;;;3.08;2.28;;;20.60;99.90;;;;;;5015986;28;20045;-70
2022/08/13 00:06:11;;;;;;;2.70;2.10;;;20.60;99.90;;;;;;5003670;28;20041;-70
2022/08/13 00:08:39;;;;;;;3.72;2.20;;;20.50;99.90;;;;;;5002548;28;20044;-70
2022/08/13 00:11:06;;;;;;;3.42;2.30;;;20.50;99.90;;;;;;5001926;28;20037;-70
2022/08/13 00:13:33;;;;;;;3.30;2.20;;;20.40;99.90;;;;;;5004120;28;20044;-70
2022/08/13 00:16:00;;;;;;;3.53;2.45;;;20.40;99.90;;;;;;5003625;28;20186;-71
2022/08/13 00:18:29;;;;;;;3.38;2.00;;;20.40;99.90;;;;;;5022415;28;20041;-70
2022/08/13 00:20:57;;;;;;;5.25;2.08;;;20.30;99.90;;;;;;5017881;28;20041;-70
2022/08/13 00:23:26;;;;;;;4.50;2.40;;;20.30;99.90;;;;;;5013134;28;20042;-70
2022/08/13 00:25:55;;;;;;;3.60;2.15;;;20.20;99.90;;;;;;5015927;28;20372;-70
2022/08/13 00:28:25;;;;;;;4.40;2.72;;;20.20;99.90;;;;;;5012827;28;20072;-70
2022/08/13 00:30:51;;;;;;;3.97;2.63;;;20.20;99.90;;;;;;5016362;28;20584;-70
2022/08/13 00:33:19;;;;;;;3.35;1.92;;;20.20;99.90;;;;;;5015757;28;20046;-70
2022/08/13 00:35:51;;;;;;;3.08;2.00;;;20.10;99.90;;;;;;4995390;28;20037;-70
2022/08/13 00:38:28;;;;;;;4.78;2.33;;;20.10;99.90;;;;;;5017116;28;20069;-70
2022/08/13 00:40:59;;;;;;;4.72;2.53;;;20.10;99.90;;;;;;5016396;28;20432;-70
2022/08/13 00:43:27;;;;;;;4.47;2.53;;;20.10;99.90;;;;;;5021839;28;20045;-70
2022/08/13 00:45:54;;;;;;;4.75;2.97;;;20.00;99.90;;;;;;4999602;28;20399;-70
2022/08/13 00:51:08;;;;;;;7.10;2.65;;;19.90;99.90;;;;;;5018525;28;20034;-70
2022/08/13 00:53:38;;;;;;;4.53;2.60;;;19.90;99.90;;;;;;4995424;28;20048;-70
2022/08/13 00:56:04;;;;;;;4.45;2.22;;;19.90;99.90;;;;;;5018447;28;20406;-70
2022/08/13 00:58:33;;;;;;;3.83;2.60;;;19.80;99.90;;;;;;4999951;28;20431;-70
2022/08/13 01:01:00;;;;;;;4.47;2.40;;;19.90;99.90;;;;;;5006291;28;20041;-70
2022/08/13 01:03:29;;;;;;;4.35;2.60;;;19.80;99.90;;;;;;4996357;28;20205;-70
2022/08/13 01:05:59;;;;;;;4.35;2.53;;;19.80;99.90;;;;;;5001697;28;20094;-70
2022/08/13 01:08:26;;;;;;;5.63;2.55;;;19.70;99.90;;;;;;4996705;28;20361;-70
2022/08/13 01:10:56;;;;;;;4.57;2.70;;;19.70;99.90;;;;;;5014822;28;20639;-70
2022/08/13 01:13:25;;;;;;;4.25;2.47;;;19.70;99.90;;;;;;5000983;28;20045;-70
2022/08/13 01:15:52;;;;;;;4.80;3.17;;;19.70;99.90;;;;;;5003273;28;20060;-70
2022/08/13 01:18:22;;;;;;;4.18;2.85;;;19.60;99.90;;;;;;5007855;28;20049;-70
2022/08/13 01:20:50;;;;;;;4.05;2.85;;;19.60;99.90;;;;;;4995039;28;20061;-70
2022/08/13 01:23:17;;;;;;;5.07;2.83;;;19.60;99.90;;;;;;5015863;28;20045;-70
2022/08/13 01:25:44;;;;;;;4.80;3.13;;;19.50;99.90;;;;;;5004156;28;20608;-70
2022/08/13 01:28:12;;;;;;;7.95;2.95;;;19.50;99.90;;;;;;5019417;28;20038;-70
2022/08/13 01:30:45;;;;;;;4.78;2.72;;;19.50;99.90;;;;;;5022490;28;20399;-70
2022/08/13 01:33:14;;;;;;;5.15;2.72;;;19.50;99.90;;;;;;5028940;28;20521;-70
2022/08/13 01:35:40;;;;;;;7.10;2.95;;;19.50;99.90;;;;;;5019044;28;20080;-70
2022/08/13 01:38:07;;;;;;;4.32;2.88;;;19.50;99.90;;;;;;5017984;28;20087;-70
2022/08/13 01:40:34;;;;;;;4.85;2.70;;;19.40;99.90;;;;;;5007701;28;20433;-70
2022/08/13 01:43:00;;;;;;;4.97;2.78;;;19.50;99.90;;;;;;5015230;28;20072;-70
2022/08/13 01:45:28;;;;;;;6.43;3.22;;;19.40;99.90;;;;;;4999479;28;20397;-70
2022/08/13 01:50:38;;;;;;;5.15;2.92;;;19.40;99.90;;;;;;4996388;28;20041;-70
2022/08/13 01:53:12;;;;;;;4.35;2.58;;;19.40;99.90;;;;;;5023633;28;20042;-70
2022/08/13 01:55:46;;;;;;;4.28;2.63;;;19.40;99.90;;;;;;5001798;28;20049;-70
2022/08/13 01:58:18;;;;;;;4.35;2.58;;;19.30;99.90;;;;;;5004618;28;20033;-70
2022/08/13 02:00:46;;;;;;;5.18;2.95;;;19.30;99.90;;;;;;5018755;28;20073;-71
2022/08/13 02:03:14;;;;;;;3.78;2.72;;;19.30;99.90;;;;;;5020851;28;20048;-70
2022/08/13 02:05:40;;;;;;;5.68;3.13;;;19.30;99.90;;;;;;4986636;28;20099;-70
2022/08/13 02:08:12;;;;;;;6.28;2.95;;;19.30;99.90;;;;;;5006445;28;20041;-70
2022/08/13 02:10:43;;;;;;;4.47;2.70;;;19.30;99.90;;;;;;5001591;28;20133;-70
2022/08/13 02:13:15;;;;;;;4.07;2.88;;;19.20;99.90;;;;;;5016532;28;20037;-70
2022/08/13 02:15:42;;;;;;;5.95;3.00;;;19.20;99.90;;;;;;4995290;28;20152;-70
2022/08/13 02:18:16;;;;;;;3.70;2.42;;;19.20;99.90;;;;;;5020401;28;20124;-70
2022/08/13 02:20:44;;;;;;;3.03;2.22;;;19.20;99.90;;;;;;4978753;28;20578;-70
2022/08/13 02:23:10;;;;;;;4.75;2.78;;;19.20;99.90;;;;;;5004936;28;20053;-70
2022/08/13 02:25:36;;;;;;;;;;;19.10;99.90;;;;;;5004452;28;20045;-70
2022/08/13 02:28:02;;;;;;;3.53;2.42;;;19.10;99.90;;;;;;5012751;28;20421;-70
2022/08/13 02:30:30;;;;;;;4.47;2.70;;;19.10;99.90;;;;;;5018574;28;20139;-70
2022/08/13 02:33:00;;;;;;;4.22;2.90;;;19.10;99.90;;;;;;5017658;28;20042;-70
2022/08/13 02:35:27;;;;;;;4.13;2.45;;;19.10;99.90;;;;;;5022196;28;20070;-70
2022/08/13 02:37:54;;;;;;;5.65;2.65;;;19.00;99.90;;;;;;5012712;28;20534;-70
2022/08/13 02:43:05;;;;;;;3.88;2.28;;;19.00;99.90;;;;;;5019483;28;20033;-70
2022/08/13 02:45:31;;;;;;;3.10;2.03;;;19.00;99.90;;;;;;5017466;28;20125;-70
2022/08/13 02:47:57;;;;;;;3.88;2.30;;;19.00;99.90;;;;;;5019224;28;20124;-70
2022/08/13 02:50:24;;;;;;;5.40;2.75;;;19.00;99.90;;;;;;5021508;28;20419;-70
2022/08/13 02:52:51;;;;;;;5.65;2.50;;;19.00;99.90;;;;;;5022551;28;20578;-70
2022/08/13 02:55:22;;;;;;;4.15;2.33;;;19.00;99.90;;;;;;5011553;28;20041;-70
2022/08/13 02:57:48;;;;;;;5.60;2.60;;;18.90;99.90;;;;;;5020555;28;20402;-70
2022/08/13 03:00:16;;;;;;;3.92;2.70;;;18.90;99.90;;;;;;5020408;28;20038;-70
2022/08/13 03:02:44;;;;;;;3.13;2.08;;;18.90;99.90;;;;;;5021147;28;20652;-70
2022/08/13 03:05:16;;;;;;;3.67;2.33;;;18.90;99.90;;;;;;4994554;28;20494;-70
2022/08/13 03:07:44;;;;;;;6.90;2.70;;;18.80;99.90;;;;;;5013675;28;20091;-70
2022/08/13 03:10:11;;;;;;;3.85;2.65;;;18.80;99.90;;;;;;4994621;28;20401;-70
2022/08/13 03:12:43;;;;;;;4.75;2.50;;;18.80;99.90;;;;;;4999042;28;20073;-70
2022/08/13 03:15:11;;;;;;;3.85;2.65;;;18.80;99.90;;;;;;5017555;28;20042;-70
2022/08/13 03:17:38;;;;;;;4.82;2.45;;;18.70;99.90;;;;;;5021875;28;20046;-70
2022/08/13 03:20:09;;;;;;;3.15;2.30;;;18.80;99.90;;;;;;4998763;28;20131;-70
2022/08/13 03:22:56;;;;;;;4.63;2.83;;;18.70;99.90;;;;;;5011485;28;20090;-70
2022/08/13 03:25:25;;;;;;;6.30;2.38;;;18.70;99.90;;;;;;5016878;28;20038;-70
2022/08/13 03:27:52;;;;;;;3.97;2.53;;;18.70;99.90;;;;;;5013491;28;20053;-70
2022/08/13 03:30:21;;;;;;;3.72;2.35;;;18.60;99.90;;;;;;5020777;28;20037;-70
2022/08/13 03:32:47;;;;;;;6.13;2.97;;;18.60;99.90;;;;;;5002868;28;20034;-70
2022/08/13 03:35:22;;;;;;;4.80;2.60;;;18.60;99.90;;;;;;5001339;28;20071;-71
2022/08/13 03:37:53;;;;;;;4.93;2.97;;;18.60;99.90;;;;;;5018035;28;20062;-70
2022/08/13 03:40:21;;;;;;;5.10;2.35;;;18.60;99.90;;;;;;4997603;28;21394;-70
2022/08/13 03:42:49;;;;;;;5.43;2.30;;;18.60;99.90;;;;;;5017218;28;20092;-70
2022/08/13 03:45:17;;;;;;;3.67;2.30;;;18.50;99.90;;;;;;5004350;28;20442;-70
2022/08/13 03:47:44;;;;;;;3.15;2.22;;;18.50;99.90;;;;;;5018626;28;21704;-70
2022/08/13 03:50:12;;;;;;;4.18;2.10;;;18.50;99.90;;;;;;5023976;28;20139;-70
2022/08/13 03:52:38;;;;;;;4.30;2.47;;;18.50;99.90;;;;;;4998168;28;20268;-70
2022/08/13 03:55:09;;;;;;;3.45;2.45;;;18.50;99.90;;;;;;4994783;28;20048;-70
2022/08/13 03:57:40;;;;;;;3.55;2.10;;;18.40;99.90;;;;;;5018950;28;20068;-70
2022/08/13 04:00:11;;;;;;;4.32;2.55;;;18.40;99.90;;;;;;5001251;28;20044;-70
2022/08/13 04:02:40;;;;;;;6.57;2.42;;;18.40;99.90;;;;;;5018664;28;20036;-70
2022/08/13 04:05:09;;;;;;;5.45;2.40;;;18.40;99.90;;;;;;5003609;28;20095;-70
2022/08/13 04:07:34;;;;;;;3.38;2.28;;;18.30;99.90;;;;;;4999385;28;20107;-70
2022/08/13 04:10:00;;;;;;;4.15;2.40;;;18.30;99.90;;;;;;5014508;28;20038;-70
2022/08/13 04:12:27;;;;;;;4.78;2.53;;;18.20;99.90;;;;;;5018923;28;20135;-70
2022/08/13 04:14:54;;;;;;;4.70;2.47;;;18.30;99.90;;;;;;4986533;28;20147;-70
2022/08/13 04:17:20;;;;;;;3.65;2.58;;;18.30;99.90;;;;;;5000465;28;20053;-70
2022/08/13 04:19:45;;;;;;;3.92;2.47;;;18.30;99.90;;;;;;5022430;28;20037;-70
2022/08/13 04:22:12;;;;;;;4.47;2.50;;;18.20;99.90;;;;;;4999879;28;20073;-70
2022/08/13 04:24:38;;;;;;;4.45;2.60;;;18.20;99.90;;;;;;4997985;28;20038;-70
2022/08/13 04:27:04;;;;;;;4.10;2.30;;;18.20;99.90;;;;;;4998264;28;20137;-70
2022/08/13 04:29:31;;;;;;;3.95;2.35;;;18.20;99.90;;;;;;5002732;28;20372;-70
2022/08/13 04:31:59;;;;;;;3.53;2.20;;;18.20;99.90;;;;;;4983746;28;20124;-70
2022/08/13 04:34:27;;;;;;;5.38;2.60;;;18.20;99.90;;;;;;5000073;28;20095;-70
2022/08/13 04:36:54;;;;;;;3.78;2.25;;;18.20;99.90;;;;;;5001494;28;20495;-70
2022/08/13 04:39:20;;;;;;;3.50;2.20;;;18.10;99.90;;;;;;5020173;28;20107;-70
2022/08/13 04:41:46;;;;;;;4.03;2.65;;;18.20;99.90;;;;;;4998292;28;20268;-70
2022/08/13 04:44:12;;;;;;;5.53;2.35;;;18.10;99.90;;;;;;5024080;28;20495;-70
2022/08/13 04:46:38;;;;;;;4.25;2.30;;;18.20;99.90;;;;;;4997740;28;20049;-70
2022/08/13 04:49:07;;;;;;;;;;;18.10;99.90;;;;;;5001903;28;20034;-70
2022/08/13 04:51:34;;;;;;;4.82;2.63;;;18.10;99.90;;;;;;5003135;28;19982;-70
2022/08/13 04:54:00;;;;;;;3.17;2.22;;;18.10;99.90;;;;;;5020162;28;20034;-70
2022/08/13 04:56:26;;;;;;;8.07;2.88;;;18.10;99.90;;;;;;5005407;28;20090;-70
2022/08/13 04:58:52;;;;;;;4.60;2.33;;;18.10;99.90;;;;;;4999104;28;20086;-70
2022/08/13 05:01:18;;;;;;;3.80;2.17;;;18.10;99.90;;;;;;5022378;28;20449;-70
2022/08/13 05:03:45;;;;;;;4.40;2.60;;;18.10;99.90;;;;;;5001900;28;20072;-70
2022/08/13 05:06:18;;;;;;;4.00;2.20;;;18.20;99.90;;;;;;5007606;28;20049;-70
2022/08/13 05:08:45;;;;;;;4.63;2.17;;;18.20;99.90;;;;;;5004675;28;20050;-70
2022/08/13 05:11:14;;;;;;;3.10;2.10;;;18.20;99.90;;;;;;4998842;28;20083;-70
2022/08/13 05:13:43;;;;;;;4.00;2.42;;;18.20;99.90;;;;;;5003297;28;20411;-70
2022/08/13 05:16:11;;;;;;;4.85;2.35;;;18.20;99.90;;;;;;5005596;28;20442;-70
2022/08/13 05:18:42;;;;;;;3.50;2.30;;;18.20;99.90;;;;;;5006245;28;20048;-70
2022/08/13 05:21:11;;;;;;;3.33;2.20;;;18.30;99.90;;;;;;5020901;28;20478;-71
2022/08/13 05:23:40;;;;;;;3.28;2.20;;;18.30;99.90;;;;;;5022293;28;20533;-70
2022/08/13 05:26:07;;;;;;;3.28;2.25;;;18.30;99.90;;;;;;5018685;28;20042;-70
2022/08/13 05:28:34;;;;;;;3.00;2.17;;;18.30;99.90;;;;;;5018593;28;20033;-70
2022/08/13 05:30:59;;;;;;;;;;;18.40;99.90;;;;;;5018119;28;20034;-70
2022/08/13 05:33:29;;;;;;;3.20;2.20;;;18.40;99.90;;;;;;5024424;28;20286;-70
2022/08/13 05:35:59;;;;;;;2.70;1.83;;;18.40;99.90;;;;;;5020791;28;20041;-70
2022/08/13 05:38:27;;;;;;;4.38;2.05;;;18.40;99.90;;;;;;4998185;28;20400;-71
2022/08/13 05:40:56;;;;;;;3.42;2.08;;;18.50;99.90;;;;;;5009160;28;20048;-70
2022/08/13 05:43:24;;;;;;;3.30;1.98;;;18.50;99.90;;;;;;5024527;28;20068;-70
2022/08/13 05:45:57;;;;;;;3.60;2.42;;;18.50;99.90;;;;;;5003615;28;20521;-70
2022/08/13 05:48:41;;;;;;;4.38;2.50;;;18.50;99.90;;;;;;5024033;28;20046;-70
2022/08/13 05:51:10;;;;;;;6.25;2.40;;;18.60;99.90;;;;;;5022964;28;20045;-70
2022/08/13 05:53:37;;;;;;;4.93;2.10;;;18.60;99.90;;;;;;5014517;28;20038;-71
2022/08/13 05:56:04;;;;;;;4.38;2.53;;;18.70;99.90;;;;;;5022248;28;20135;-71
2022/08/13 05:58:30;;;;;;;5.00;2.47;;;18.70;99.90;;;;;;4982133;28;20045;-71
2022/08/13 06:03:40;;;;;;;5.38;2.35;;;18.80;99.90;;;;;;4998883;28;20301;-71
2022/08/13 06:06:07;;;;;;;;;;;18.80;99.90;;;;;;5004037;28;20041;-70
2022/08/13 06:08:35;;;;;;;3.20;2.08;;;18.90;99.90;;;;;;5022184;28;20572;-71
2022/08/13 06:11:16;;;;;;;4.07;2.30;;;18.90;99.90;;;;;;4990777;28;20128;-70
2022/08/13 06:13:44;;;;;;;5.00;2.17;;;19.00;99.90;;;;;;5011451;28;20132;-70
2022/08/13 06:16:12;;;;;;;3.72;2.10;;;19.00;99.90;;;;;;5000609;28;20850;-71
2022/08/13 06:18:46;;;;;;;3.17;2.15;;;19.10;99.90;;;;;;5016775;28;20271;-71
2022/08/13 06:21:13;;;;;;;3.10;1.90;;;19.10;99.90;;;;;;5001281;28;20632;-71
2022/08/13 06:23:42;;;;;;;3.78;2.47;;;19.10;99.90;;;;;;5018191;28;20095;-71
2022/08/13 06:26:09;;;;;;;2.92;2.05;;;19.20;99.90;;;;;;5016212;28;20124;-71
2022/08/13 06:28:36;;;;;;;2.83;1.70;;;19.20;99.90;;;;;;5002439;28;20412;-71
2022/08/13 06:31:08;;;;;;;4.30;2.10;;;19.30;99.90;;;;;;5008190;28;20189;-71
2022/08/13 06:33:35;;;;;;;2.45;1.67;;;19.30;99.90;;;;;;5015360;28;20631;-71
2022/08/13 06:36:04;;;;;;;2.60;1.80;;;19.40;99.90;;;;;;5014014;28;20384;-71
2022/08/13 06:38:32;;;;;;;2.90;1.65;;;19.50;99.90;;;;;;5023290;28;20042;-71
2022/08/13 06:41:01;;;;;;;3.92;1.60;;;19.60;99.90;;;;;;5013251;28;20124;-71
2022/08/13 06:43:30;;;;;;;3.03;1.42;;;19.70;99.90;;;;;;5003011;28;20038;-71
2022/08/13 06:45:58;;;;;;;4.95;1.88;;;19.70;99.90;;;;;;5001620;28;20136;-71
2022/08/13 06:48:24;;;;;;;2.78;1.90;;;19.80;99.90;;;;;;4998022;28;20099;-71
2022/08/13 06:50:50;;;;;;;2.67;1.63;;;19.90;99.90;;;;;;5021289;28;20041;-70
2022/08/13 06:53:16;;;;;;;1.77;1.23;;;20.00;99.90;;;;;;5002440;28;20425;-70
2022/08/13 06:55:43;;;;;;;2.60;1.30;;;20.00;99.90;;;;;;5023808;28;20838;-71
2022/08/13 06:58:10;;;;;;;2.80;1.40;;;20.10;99.90;;;;;;5016847;28;20046;-71
2022/08/13 07:00:41;;;;;;;3.08;1.45;;;20.20;99.90;;;;;;4998133;28;20046;-71
2022/08/13 07:03:07;;;;;;;1.98;1.33;;;20.30;99.90;;;;;;5023538;28;20451;-71
2022/08/13 07:05:38;;;;;;;2.67;1.30;;;20.40;99.90;;;;;;5022906;28;20419;-71
2022/08/13 07:08:07;;;;;;;5.93;1.42;;;20.50;99.90;;;;;;5001340;28;20041;-71
2022/08/13 07:10:34;;;;;;;2.30;1.40;;;20.50;99.90;;;;;;5014390;28;20037;-71
2022/08/13 07:13:01;;;;;;;2.10;1.10;;;20.70;99.90;;;;;;4998771;28;20041;-71
2022/08/13 07:15:27;;;;;;;1.85;1.10;;;20.80;99.90;;;;;;5018451;28;20500;-71
2022/08/13 07:17:55;;;;;;;1.98;1.20;;;20.80;99.90;;;;;;5018272;28;20065;-71
2022/08/13 07:20:21;;;;;;;2.10;1.08;;;20.90;99.90;;;;;;5020961;28;20242;-71
2022/08/13 07:22:47;;;;;;;2.60;1.40;;;21.10;99.90;;;;;;4997782;28;20271;-71
2022/08/13 07:25:13;;;;;;;2.97;1.27;;;21.10;99.90;;;;;;5012987;28;20061;-71
2022/08/13 07:27:40;;;;;;;;;;;21.20;99.90;;;;;;5021053;28;20049;-70
2022/08/13 07:30:07;;;;;;;1.63;0.93;;;21.30;99.90;;;;;;5016057;28;19917;-71
2022/08/13 07:32:39;;;;;;;2.55;1.08;;;21.40;99.90;;;;;;5019547;28;20041;-70
2022/08/13 07:35:08;;;;;;;1.15;0.90;;;21.50;99.90;;;;;;5016250;28;20231;-71
2022/08/13 07:37:35;;;;;;;1.88;1.23;;;21.60;99.90;;;;;;5001071;28;20440;-70
2022/08/13 07:40:02;;;;;;;1.65;1.00;;;21.80;99.90;;;;;;5024171;28;20084;-71
2022/08/13 07:42:29;;;;;;;1.77;1.10;;;21.80;99.90;;;;;;5007455;28;20068;-70
2022/08/13 07:44:54;;;;;;;1.58;0.98;;;22.00;99.90;;;;;;5023077;28;20038;-71
2022/08/13 07:47:22;;;;;;;;;;;22.10;99.90;;;;;;4995451;28;20058;-70
2022/08/13 07:52:18;;;;;;;1.23;0.80;;;22.30;99.90;;;;;;4996755;28;20230;-69
2022/08/13 07:54:44;;;;;;;;;;;22.40;99.90;;;;;;4998984;28;20045;-69
2022/08/13 07:57:13;;;;;;;2.42;1.02;;;22.40;99.90;;;;;;5000137;28;20129;-69
2022/08/13 07:59:38;;;;;;;1.85;1.15;;;22.60;99.90;;;;;;4984906;28;20049;-69
2022/08/13 08:02:07;;;;;;;;;;;22.60;99.90;;;;;;5019082;28;20398;-69
2022/08/13 08:04:35;;;;;;;2.60;1.20;;;22.70;99.90;;;;;;4998853;28;19921;-69
2022/08/13 08:07:02;;;;;;;1.83;0.95;;;22.80;99.90;;;;;;5002482;28;20041;-69
2022/08/13 08:09:34;;;;;;;3.15;1.00;;;23.00;99.90;;;;;;5013875;28;20123;-69
2022/08/13 08:14:47;;;;;;;3.92;0.90;;;23.20;99.90;;;;;;4999876;28;20539;-69
2022/08/13 08:17:13;;;;;;;;;;;23.30;99.90;;;;;;5011166;28;20510;-69
2022/08/13 08:19:40;;;;;;;1.55;0.75;;;23.40;99.90;;;;;;4999459;28;19973;-66
2022/08/13 08:22:07;;;;;;;1.50;0.77;;;23.50;99.90;;;;;;5015790;28;20351;-67
2022/08/13 08:24:34;;;;;;;2.33;1.10;;;23.60;99.90;;;;;;5011937;28;20492;-68
2022/08/13 08:27:05;;;;;;;1.08;0.65;;;23.70;99.90;;;;;;5020414;28;20050;-68
2022/08/13 08:29:32;;;;;;;4.18;1.00;;;23.70;99.90;;;;;;5004690;28;20118;-68
2022/08/13 08:31:59;;;;;;;1.80;1.13;;;23.90;99.90;;;;;;5004564;28;20574;-68
2022/08/13 08:34:26;;;;;;;1.27;0.85;;;24.00;99.90;;;;;;5010151;28;20120;-68
2022/08/13 08:36:53;;;;;;;1.70;0.98;;;24.10;99.90;;;;;;5020086;28;20117;-68
2022/08/13 08:44:51;;;;;;;1.67;0.80;;;24.40;99.90;;;;;;5018987;28;20073;-68
2022/08/13 08:47:16;;;;;;;1.80;0.95;;;24.50;99.90;;;;;;5021315;28;20393;-68
2022/08/13 08:49:43;;;;;;;1.92;1.00;;;24.60;99.90;;;;;;5021105;28;20198;-68
2022/08/13 08:52:09;;;;;;;5.65;0.90;;;24.70;99.90;;;;;;4999977;28;20049;-68
2022/08/13 08:54:36;;;;;;;1.85;1.02;;;24.80;99.90;;;;;;5022326;28;20037;-68
2022/08/13 08:57:03;;;;;;;1.38;0.77;;;24.90;99.90;;;;;;5006046;28;20041;-68
2022/08/13 08:59:32;;;;;;;4.63;0.80;;;24.90;99.40;;;;;;5005748;28;20053;-68
2022/08/13 09:01:59;;;;;;;2.42;1.10;;;25.10;98.30;;;;;;5020269;28;20057;-68
2022/08/13 09:04:25;;;;;;;1.40;0.80;;;25.20;98.40;;;;;;5017927;28;20071;-68
2022/08/13 09:06:59;;;;;;;3.67;0.95;;;25.30;97.90;;;;;;5021511;28;20474;-68
2022/08/13 09:09:26;;;;;;;1.02;0.60;;;25.40;96.90;;;;;;5023671;28;20037;-68
2022/08/13 09:11:55;;;;;;;1.25;0.63;;;25.50;96.70;;;;;;5007851;28;20037;-68
2022/08/13 09:14:30;;;;;;;1.90;0.68;;;25.60;96.50;;;;;;5022855;28;20131;-68
2022/08/13 09:16:57;;;;;;;1.70;0.75;;;25.70;96.00;;;;;;5018916;28;20052;-68
2022/08/13 09:19:25;;;;;;;1.42;0.70;;;25.80;94.70;;;;;;5024062;28;20219;-68
2022/08/13 09:21:51;;;;;;;3.10;0.88;;;25.90;94.10;;;;;;5001777;28;20041;-69
2022/08/13 09:24:19;;;;;;;1.55;0.82;;;26.00;93.40;;;;;;5002282;28;20238;-68
2022/08/13 09:26:47;;;;;;;2.10;0.82;;;26.20;92.80;;;;;;5002778;28;20172;-68
2022/08/13 09:29:18;;;;;;;2.38;0.60;;;26.30;92.00;;;;;;5010730;28;20046;-68
2022/08/13 09:31:47;;;;;;;2.10;0.90;;;26.40;90.80;;;;;;5003615;28;20045;-69
2022/08/13 09:34:12;;;;;;;2.83;0.80;;;26.50;87.70;;;;;;5024718;28;20099;-68
2022/08/13 09:36:39;;;;;;;1.42;0.80;;;26.60;84.00;;;;;;5002553;28;20517;-69
2022/08/13 09:39:05;;;;;;;1.30;0.80;;;26.70;83.10;;;;;;5025932;28;20160;-68
2022/08/13 09:41:41;;;;;;;0.90;0.70;;;26.90;82.10;;;;;;4999758;28;20068;-69
2022/08/13 09:44:06;;;;;;;1.08;0.68;;;27.00;78.90;;;;;;5003897;28;20523;-69
2022/08/13 09:46:34;;;;;;;1.83;0.70;;;27.10;78.60;;;;;;5016584;28;20065;-69
2022/08/13 09:49:00;;;;;;;1.15;0.63;;;27.10;78.20;;;;;;5017764;28;20037;-69
2022/08/13 09:51:35;;;;;;;1.42;0.88;;;27.20;76.90;;;;;;5011812;28;21151;-69
2022/08/13 09:54:11;;;;;;;1.20;0.75;;;27.30;75.70;;;;;;5022105;28;20640;-69
2022/08/13 09:56:37;;;;;;;2.00;0.90;;;27.40;74.30;;;;;;5017731;28;20084;-69
2022/08/13 09:59:10;;;;;;;1.75;0.88;;;27.50;73.70;;;;;;5004323;28;20608;-69
2022/08/13 10:01:37;;;;;;;1.98;0.75;;;27.60;73.50;;;;;;5020372;28;20043;-68
2022/08/13 10:04:04;;;;;;;1.35;0.70;;;27.70;72.50;;;;;;5023018;28;20144;-68
2022/08/13 10:06:32;;;;;;;1.10;0.65;;;27.70;71.90;;;;;;5002605;28;20072;-69
2022/08/13 10:09:00;;;;;;;1.67;0.75;;;27.80;70.30;;;;;;5000782;28;20049;-68
2022/08/13 10:11:27;;;;;;;1.40;0.70;;;27.90;70.00;;;;;;5016404;28;20128;-76
2022/08/13 10:13:54;;;;;;;1.83;0.70;;;28.00;69.00;;;;;;5005773;28;20573;-74
2022/08/13 10:16:20;;;;;;;2.78;0.70;;;28.00;69.10;;;;;;4984877;28;21633;-73
2022/08/13 10:18:46;;;;;;;1.67;0.50;;;28.00;68.60;;;;;;4998116;28;20061;-73
2022/08/13 10:21:15;;;;;;;1.30;0.80;;;28.10;68.50;;;;;;5000439;28;20045;-73
2022/08/13 10:23:41;;;;;;;2.47;1.00;;;28.00;68.10;;;;;;5003344;28;20045;-73
2022/08/13 10:26:07;;;;;;;1.17;0.70;;;28.00;67.30;;;;;;5002952;28;20068;-73
2022/08/13 10:28:34;;;;;;;1.02;0.77;;;28.00;67.10;;;;;;5022193;28;20123;-73
2022/08/13 10:31:03;;;;;;;1.52;0.70;;;28.10;67.30;;;;;;5003451;28;20503;-73
2022/08/13 10:33:28;;;;;;;1.38;0.60;;;28.10;67.50;;;;;;5006276;28;20124;-73
2022/08/13 10:35:55;;;;;;;0.68;0.50;;;28.20;66.90;;;;;;5021363;28;20487;-74
2022/08/13 10:38:26;;;;;;;0.90;0.70;;;28.20;66.50;;;;;;5015817;28;20531;-74
2022/08/13 10:40:56;;;;;;;1.45;0.93;;;28.20;66.10;;;;;;5019625;28;20045;-74
2022/08/13 10:43:22;;;;;;;1.65;0.85;;;28.20;65.70;;;;;;5001799;28;20098;-74
2022/08/13 10:45:49;;;;;;;2.40;0.95;;;28.30;66.30;;;;;;4999903;28;21412;-74
2022/08/13 10:48:15;;;;;;;1.40;0.73;;;28.30;65.10;;;;;;5007416;28;20045;-74
2022/08/13 10:50:41;;;;;;;1.13;0.70;;;28.40;64.70;;;;;;5018586;28;20248;-74
2022/08/13 10:53:07;;;;;;;1.10;0.80;;;28.50;64.70;;;;;;5015168;28;20191;-74
2022/08/13 10:55:35;;;;;;;1.77;0.88;;;28.50;64.60;;;;;;5020625;28;20521;-73
2022/08/13 10:58:03;;;;;;;1.75;1.05;;;28.60;63.90;;;;;;5019649;28;20141;-74
2022/08/13 11:00:29;;;;;;;1.10;0.70;;;28.70;63.30;;;;;;5014072;28;20535;-74
2022/08/13 11:02:55;;;;;;;1.42;1.00;;;28.70;63.40;;;;;;5002466;28;20458;-74
2022/08/13 11:05:25;;;;;;;1.08;0.70;;;28.90;63.00;;;;;;5002984;28;20041;-74
2022/08/13 11:07:52;;;;;;;1.30;0.73;;;28.90;63.10;;;;;;5011384;28;20054;-74
2022/08/13 11:10:20;;;;;;;1.35;0.80;;;29.00;62.60;;;;;;5019306;28;20463;-74
2022/08/13 11:12:55;;;;;;;3.33;0.60;;;29.00;62.00;;;;;;5000762;28;20080;-74
2022/08/13 11:15:22;;;;;;;1.55;0.80;;;29.10;61.50;;;;;;5004779;28;20132;-74
2022/08/13 11:17:55;;;;;;;1.30;0.70;;;29.20;60.90;;;;;;5000733;28;20402;-73
2022/08/13 11:20:24;;;;;;;1.60;0.88;;;29.20;60.40;;;;;;4999106;28;20049;-74
2022/08/13 11:22:53;;;;;;;4.68;0.70;;;29.30;59.90;;;;;;5005591;28;20140;-74
2022/08/13 11:25:19;;;;;;;1.05;0.60;;;29.40;59.20;;;;;;5020366;28;20043;-74
2022/08/13 11:27:45;;;;;;;1.55;0.60;;;29.40;59.40;;;;;;4998394;28;20076;-74
2022/08/13 11:30:12;;;;;;;1.08;0.70;;;29.50;58.90;;;;;;5017116;28;20041;-75
2022/08/13 11:32:38;;;;;;;1.27;0.80;;;29.60;58.20;;;;;;5000441;28;20939;-74
2022/08/13 11:35:05;;;;;;;0.90;0.60;;;29.60;58.10;;;;;;4998169;28;20112;-74
2022/08/13 11:37:31;;;;;;;1.48;0.60;;;29.70;57.30;;;;;;4995370;28;20220;-74
2022/08/13 11:39:56;;;;;;;1.00;0.60;;;29.80;56.40;;;;;;5010597;28;20045;-74
2022/08/13 11:42:22;;;;;;;0.68;0.57;;;29.90;56.00;;;;;;5013242;28;20586;-74
2022/08/13 11:44:47;;;;;;;1.45;0.80;;;29.90;55.50;;;;;;4997476;28;20116;-74
2022/08/13 11:47:13;;;;;;;0.77;0.50;;;29.90;55.30;;;;;;4995949;28;20045;-74
2022/08/13 11:49:39;;;;;;;1.23;0.80;;;30.00;54.70;;;;;;5014469;28;20025;-74
2022/08/13 11:52:04;;;;;;;1.08;0.70;;;30.00;55.00;;;;;;4992834;28;20055;-74
2022/08/13 11:54:30;;;;;;;1.90;0.80;;;30.10;54.00;;;;;;4994675;28;20364;-74
2022/08/13 11:56:56;;;;;;;1.55;0.93;;;30.20;53.80;;;;;;5015826;28;20577;-75
2022/08/13 11:59:21;;;;;;;1.30;0.80;;;30.30;53.50;;;;;;4983494;28;20427;-74
2022/08/13 12:01:47;;;;;;;1.20;0.60;;;30.30;52.60;;;;;;5015161;28;20254;-74
2022/08/13 12:04:13;;;;;;;1.17;0.70;;;30.40;52.30;;;;;;5013435;28;20045;-74
2022/08/13 12:06:39;;;;;;;1.73;0.80;;;30.50;51.30;;;;;;5005021;28;20071;-74
2022/08/13 12:09:05;;;;;;;1.73;0.70;;;30.50;51.10;;;;;;5005236;28;20038;-78
2022/08/13 12:11:32;;;;;;;1.00;0.65;;;30.60;51.40;;;;;;5001915;28;20192;-74
2022/08/13 12:13:57;;;;;;;1.30;0.77;;;30.70;51.70;;;;;;5022108;28;20045;-75
2022/08/13 12:16:23;;;;;;;1.50;0.70;;;30.80;51.70;;;;;;4990991;28;22112;-74
2022/08/13 12:18:49;;;;;;;2.20;0.80;;;30.80;51.60;;;;;;5000570;28;20422;-74
2022/08/13 12:21:14;;;;;;;1.88;0.60;;;30.90;51.40;;;;;;4984460;28;20091;-74
2022/08/13 12:23:40;;;;;;;0.98;0.60;;;31.00;51.70;;;;;;5013362;28;20041;-74
2022/08/13 12:26:06;;;;;;;2.80;0.82;;;31.00;51.30;;;;;;4999834;28;20272;-74
2022/08/13 12:28:33;;;;;;;0.80;0.55;;;31.10;50.90;;;;;;4999930;28;20288;-74
2022/08/13 12:31:10;;;;;;;1.05;0.73;;;31.10;49.50;;;;;;5004098;28;20557;-74
2022/08/13 12:33:37;;;;;;;1.40;0.75;;;31.10;49.20;;;;;;5004103;28;20447;-74
2022/08/13 12:36:03;;;;;;;1.10;0.60;;;31.20;48.80;;;;;;4989974;28;20534;-74
2022/08/13 12:38:30;;;;;;;1.70;0.80;;;31.30;48.50;;;;;;5002777;28;20041;-74
2022/08/13 12:40:56;;;;;;;1.73;0.70;;;31.30;48.40;;;;;;4999577;28;20128;-74
2022/08/13 12:43:22;;;;;;;1.88;0.80;;;31.40;48.20;;;;;;4990642;28;20140;-74
2022/08/13 12:45:47;;;;;;;1.05;0.68;;;31.50;48.50;;;;;;4993978;28;20037;-74
2022/08/13 12:48:16;;;;;;;1.05;0.60;;;31.60;49.30;;;;;;5015296;28;20041;-74
2022/08/13 12:50:44;;;;;;;1.15;0.70;;;31.70;48.90;;;;;;5016538;28;20055;-74
2022/08/13 12:53:10;;;;;;;1.88;1.05;;;31.70;48.50;;;;;;4994626;28;20049;-73
2022/08/13 12:55:38;;;;;;;1.98;0.80;;;31.80;48.20;;;;;;4998662;28;20034;-74
2022/08/13 12:58:18;;;;;;;1.50;0.90;;;31.80;47.30;;;;;;5015184;28;20072;-74
2022/08/13 13:00:46;;;;;;;1.35;0.73;;;31.80;46.80;;;;;;4995155;28;20045;-74
2022/08/13 13:03:13;;;;;;;2.53;0.90;;;31.90;47.10;;;;;;5021359;28;20060;-74
2022/08/13 13:05:41;;;;;;;1.48;0.80;;;31.90;47.30;;;;;;5013969;28;20089;-74
2022/08/13 13:08:22;;;;;;;1.90;0.70;;;32.00;47.10;;;;;;5008061;28;20132;-74
2022/08/13 13:10:50;;;;;;;1.65;0.85;;;32.10;47.60;;;;;;5000891;28;20054;-74
2022/08/13 13:13:19;;;;;;;1.00;0.60;;;32.10;47.00;;;;;;4997086;28;20474;-74